createdAt,value
2023-05-08T00:00:01.259Z,0.00
2023-05-08T00:01:01.229Z,0.00
2023-05-08T00:02:01.231Z,0.00
2023-05-08T00:03:01.450Z,0.00
2023-05-08T00:04:01.375Z,0.00
2023-05-08T00:05:01.342Z,0.00
2023-05-08T00:06:01.242Z,0.00
2023-05-08T00:07:01.242Z,0.00
2023-05-08T00:08:01.251Z,0.00
2023-05-08T00:09:01.242Z,0.00
2023-05-08T00:10:01.244Z,0.00
2023-05-08T00:11:01.246Z,0.00
2023-05-08T00:12:01.247Z,0.00
2023-05-08T00:13:01.273Z,0.00
2023-05-08T00:14:01.252Z,0.00
2023-05-08T00:15:01.256Z,0.00
2023-05-08T00:16:01.293Z,0.00
2023-05-08T00:17:01.339Z,0.00
2023-05-08T00:18:01.308Z,0.00
2023-05-08T00:19:01.269Z,0.00
2023-05-08T00:20:01.262Z,0.00
2023-05-08T00:21:01.264Z,0.00
2023-05-08T00:22:01.274Z,0.00
2023-05-08T00:23:01.275Z,0.00
2023-05-08T00:24:01.287Z,0.00
2023-05-08T00:25:01.271Z,0.00
2023-05-08T00:26:01.274Z,0.00
2023-05-08T00:27:01.280Z,0.00
2023-05-08T00:28:01.278Z,0.00
2023-05-08T00:29:01.279Z,0.00
2023-05-08T00:30:01.280Z,0.00
2023-05-08T00:31:01.596Z,0.00
2023-05-08T00:32:01.348Z,0.00
2023-05-08T00:33:01.339Z,0.00
2023-05-08T00:34:01.289Z,0.00
2023-05-08T00:35:01.293Z,0.00
2023-05-08T00:36:01.291Z,0.00
2023-05-08T00:37:01.303Z,0.00
2023-05-08T00:38:01.325Z,0.00
2023-05-08T00:39:01.307Z,0.00
2023-05-08T00:40:01.321Z,0.00
2023-05-08T00:41:01.306Z,0.00
2023-05-08T00:42:01.303Z,0.00
2023-05-08T00:43:01.608Z,0.00
2023-05-08T00:44:01.308Z,0.00
2023-05-08T00:45:01.312Z,0.00
2023-05-08T00:46:01.420Z,0.00
2023-05-08T00:47:01.315Z,0.00
2023-05-08T00:48:01.360Z,0.00
2023-05-08T00:49:01.314Z,0.00
2023-05-08T00:50:01.323Z,0.00
2023-05-08T00:51:01.324Z,0.00
2023-05-08T00:52:01.319Z,0.00
2023-05-08T00:53:01.350Z,0.00
2023-05-08T00:54:01.353Z,0.00
2023-05-08T00:55:01.354Z,0.00
2023-05-08T00:56:01.329Z,0.00
2023-05-08T00:57:01.335Z,0.00
2023-05-08T00:58:01.375Z,0.00
2023-05-08T00:59:01.334Z,0.00
2023-05-08T01:00:01.339Z,0.00
2023-05-08T01:01:01.368Z,0.00
2023-05-08T01:02:01.579Z,0.00
2023-05-08T01:03:01.420Z,0.00
2023-05-08T01:04:01.394Z,0.00
2023-05-08T01:05:01.351Z,0.00
2023-05-08T01:06:01.354Z,0.00
2023-05-08T01:07:01.360Z,0.00
2023-05-08T01:08:01.363Z,0.00
2023-05-08T01:09:01.355Z,0.00
2023-05-08T01:10:01.357Z,0.00
2023-05-08T01:11:01.364Z,0.00
2023-05-08T01:12:01.362Z,0.00
2023-05-08T01:13:01.447Z,0.00
2023-05-08T01:14:01.363Z,0.00
2023-05-08T01:15:01.390Z,0.00
2023-05-08T01:16:01.441Z,0.00
2023-05-08T01:17:01.380Z,0.00
2023-05-08T01:18:01.402Z,0.00
2023-05-08T01:19:01.376Z,0.00
2023-05-08T01:20:01.410Z,0.00
2023-05-08T01:21:01.381Z,0.00
2023-05-08T01:22:01.384Z,0.00
2023-05-08T01:23:01.402Z,0.00
2023-05-08T01:24:01.383Z,0.00
2023-05-08T01:25:01.396Z,0.00
2023-05-08T01:26:01.392Z,0.00
2023-05-08T01:27:01.401Z,0.00
2023-05-08T01:28:01.397Z,0.00
2023-05-08T01:29:01.407Z,0.00
2023-05-08T01:30:01.398Z,0.00
2023-05-08T01:31:01.396Z,0.00
2023-05-08T01:32:01.406Z,0.00
2023-05-08T01:33:01.458Z,0.00
2023-05-08T01:34:01.468Z,0.00
2023-05-08T01:35:01.403Z,0.00
2023-05-08T01:36:01.443Z,0.00
2023-05-08T01:37:01.415Z,0.00
2023-05-08T01:38:01.417Z,0.00
2023-05-08T01:39:01.413Z,0.00
2023-05-08T01:40:01.416Z,0.00
2023-05-08T01:41:01.429Z,0.00
2023-05-08T01:42:01.420Z,0.00
2023-05-08T01:43:01.421Z,0.00
2023-05-08T01:44:01.426Z,0.00
2023-05-08T01:45:01.436Z,0.00
2023-05-08T01:46:01.428Z,0.00
2023-05-08T01:47:01.502Z,0.00
2023-05-08T01:48:01.492Z,0.00
2023-05-08T01:49:01.445Z,0.00
2023-05-08T01:50:01.451Z,0.00
2023-05-08T01:51:01.455Z,0.00
2023-05-08T01:52:01.470Z,0.00
2023-05-08T01:53:01.438Z,0.00
2023-05-08T01:54:01.444Z,0.00
2023-05-08T01:55:01.447Z,0.00
2023-05-08T01:56:01.452Z,0.00
2023-05-08T01:57:01.450Z,0.00
2023-05-08T01:58:01.446Z,0.00
2023-05-08T01:59:01.501Z,0.00
2023-05-08T02:00:01.459Z,0.00
2023-05-08T02:01:01.484Z,0.00
2023-05-08T02:02:01.481Z,0.00
2023-05-08T02:03:01.543Z,0.00
2023-05-08T02:04:01.489Z,0.00
2023-05-08T02:05:01.472Z,0.00
2023-05-08T02:06:01.474Z,0.00
2023-05-08T02:07:01.469Z,0.00
2023-05-08T02:08:01.499Z,0.00
2023-05-08T02:09:01.484Z,0.00
2023-05-08T02:10:01.474Z,0.00
2023-05-08T02:11:01.490Z,0.00
2023-05-08T02:12:01.487Z,0.00
2023-05-08T02:13:01.509Z,0.00
2023-05-08T02:14:01.478Z,0.00
2023-05-08T02:15:01.509Z,0.00
2023-05-08T02:16:01.482Z,0.00
2023-05-08T02:17:01.637Z,0.00
2023-05-08T02:18:01.531Z,0.00
2023-05-08T02:19:01.489Z,0.00
2023-05-08T02:20:01.491Z,0.00
2023-05-08T02:21:01.496Z,0.00
2023-05-08T02:22:01.491Z,0.00
2023-05-08T02:23:01.503Z,0.00
2023-05-08T02:24:01.534Z,0.00
2023-05-08T02:25:01.497Z,0.00
2023-05-08T02:26:01.496Z,0.00
2023-05-08T02:27:01.501Z,0.00
2023-05-08T02:28:01.503Z,0.00
2023-05-08T02:29:01.502Z,0.00
2023-05-08T02:30:01.519Z,0.00
2023-05-08T02:31:01.528Z,0.00
2023-05-08T02:32:01.525Z,0.00
2023-05-08T02:33:01.524Z,0.00
2023-05-08T02:34:01.511Z,0.00
2023-05-08T02:35:03.517Z,0.00
2023-05-08T02:36:01.520Z,4.00
2023-05-08T02:37:01.519Z,4.00
2023-05-08T02:38:01.520Z,4.00
2023-05-08T02:39:01.523Z,4.00
2023-05-08T02:40:01.568Z,4.00
2023-05-08T02:41:01.548Z,4.00
2023-05-08T02:42:01.532Z,4.00
2023-05-08T02:43:01.544Z,4.00
2023-05-08T02:44:01.529Z,0.00
2023-05-08T02:45:01.537Z,0.00
2023-05-08T02:46:01.572Z,0.00
2023-05-08T02:47:01.547Z,0.00
2023-05-08T02:48:01.562Z,0.00
2023-05-08T02:49:01.542Z,0.00
2023-05-08T02:50:01.539Z,0.00
2023-05-08T02:51:01.536Z,0.00
2023-05-08T02:52:01.548Z,0.00
2023-05-08T02:53:01.542Z,0.00
2023-05-08T02:54:01.554Z,0.00
2023-05-08T02:55:01.581Z,0.00
2023-05-08T02:56:01.578Z,0.00
2023-05-08T02:57:01.555Z,0.00
2023-05-08T02:58:01.556Z,0.00
2023-05-08T02:59:01.561Z,4.00
2023-05-08T03:00:01.577Z,0.00
2023-05-08T03:01:01.589Z,0.00
2023-05-08T03:02:01.571Z,0.00
2023-05-08T03:03:01.654Z,0.00
2023-05-08T03:04:01.565Z,0.00
2023-05-08T03:05:01.562Z,0.00
2023-05-08T03:06:01.570Z,0.00
2023-05-08T03:07:01.584Z,0.00
2023-05-08T03:08:01.567Z,0.00
2023-05-08T03:09:01.577Z,0.00
2023-05-08T03:10:01.576Z,0.00
2023-05-08T03:11:01.588Z,0.00
2023-05-08T03:12:01.603Z,0.00
2023-05-08T03:13:01.614Z,0.00
2023-05-08T03:14:01.577Z,0.00
2023-05-08T03:15:01.582Z,4.00
2023-05-08T03:16:01.620Z,4.00
2023-05-08T03:17:01.587Z,4.00
2023-05-08T03:18:01.648Z,4.00
2023-05-08T03:19:01.597Z,4.00
2023-05-08T03:20:01.596Z,4.00
2023-05-08T03:21:01.595Z,4.00
2023-05-08T03:22:01.617Z,4.00
2023-05-08T03:23:01.600Z,4.00
2023-05-08T03:24:01.598Z,4.00
2023-05-08T03:25:01.597Z,4.00
2023-05-08T03:26:01.594Z,4.00
2023-05-08T03:27:01.604Z,0.00
2023-05-08T03:28:01.634Z,0.00
2023-05-08T03:29:01.611Z,0.00
2023-05-08T03:30:01.604Z,0.00
2023-05-08T03:31:01.622Z,4.00
2023-05-08T03:32:01.611Z,4.00
2023-05-08T03:33:01.642Z,4.00
2023-05-08T03:34:01.613Z,4.00
2023-05-08T03:35:01.622Z,4.00
2023-05-08T03:36:01.640Z,4.00
2023-05-08T03:37:01.625Z,4.00
2023-05-08T03:38:01.620Z,4.00
2023-05-08T03:39:01.620Z,4.00
2023-05-08T03:40:01.624Z,4.00
2023-05-08T03:41:01.637Z,0.00
2023-05-08T03:42:01.639Z,0.00
2023-05-08T03:43:01.639Z,4.00
2023-05-08T03:44:01.765Z,4.00
2023-05-08T03:45:01.633Z,4.00
2023-05-08T03:46:01.632Z,4.00
2023-05-08T03:47:01.679Z,4.00
2023-05-08T03:48:01.684Z,4.00
2023-05-08T03:49:01.638Z,4.00
2023-05-08T03:50:01.650Z,4.00
2023-05-08T03:51:01.704Z,4.00
2023-05-08T03:52:01.649Z,4.00
2023-05-08T03:53:01.658Z,4.00
2023-05-08T03:54:01.688Z,4.00
2023-05-08T03:55:01.727Z,4.00
2023-05-08T03:56:01.666Z,4.00
2023-05-08T03:57:01.657Z,8.00
2023-05-08T03:58:01.661Z,4.00
2023-05-08T03:59:01.665Z,4.00
2023-05-08T04:00:01.694Z,4.00
2023-05-08T04:01:01.678Z,4.00
2023-05-08T04:02:01.694Z,4.00
2023-05-08T04:03:01.800Z,4.00
2023-05-08T04:04:01.733Z,4.00
2023-05-08T04:05:01.669Z,4.00
2023-05-08T04:06:01.680Z,4.00
2023-05-08T04:07:01.676Z,4.00
2023-05-08T04:08:01.685Z,4.00
2023-05-08T04:09:01.682Z,4.00
2023-05-08T04:10:01.684Z,4.00
2023-05-08T04:11:01.834Z,4.00
2023-05-08T04:12:01.688Z,4.00
2023-05-08T04:13:01.742Z,4.00
2023-05-08T04:14:01.692Z,4.00
2023-05-08T04:15:01.709Z,4.00
2023-05-08T04:16:01.717Z,4.00
2023-05-08T04:17:01.773Z,8.00
2023-05-08T04:18:01.724Z,8.00
2023-05-08T04:19:01.703Z,8.00
2023-05-08T04:20:01.712Z,8.00
2023-05-08T04:21:01.708Z,4.00
2023-05-08T04:22:01.702Z,4.00
2023-05-08T04:23:01.724Z,4.00
2023-05-08T04:24:01.713Z,4.00
2023-05-08T04:25:01.715Z,4.00
2023-05-08T04:26:01.718Z,4.00
2023-05-08T04:27:01.721Z,4.00
2023-05-08T04:28:01.736Z,4.00
2023-05-08T04:29:01.717Z,4.00
2023-05-08T04:30:01.740Z,4.00
2023-05-08T04:31:01.733Z,4.00
2023-05-08T04:32:01.790Z,4.00
2023-05-08T04:33:01.802Z,4.00
2023-05-08T04:34:01.727Z,4.00
2023-05-08T04:35:01.729Z,4.00
2023-05-08T04:36:01.731Z,8.00
2023-05-08T04:37:01.734Z,8.00
2023-05-08T04:38:01.736Z,8.00
2023-05-08T04:39:01.751Z,8.00
2023-05-08T04:40:01.742Z,4.00
2023-05-08T04:41:01.774Z,4.00
2023-05-08T04:42:01.752Z,4.00
2023-05-08T04:43:01.756Z,4.00
2023-05-08T04:44:01.744Z,8.00
2023-05-08T04:45:01.803Z,4.00
2023-05-08T04:46:01.808Z,8.00
2023-05-08T04:47:01.781Z,8.00
2023-05-08T04:48:01.819Z,8.00
2023-05-08T04:49:01.762Z,8.00
2023-05-08T04:50:02.765Z,8.00
2023-05-08T04:51:01.764Z,8.00
2023-05-08T04:52:01.779Z,8.00
2023-05-08T04:53:01.769Z,8.00
2023-05-08T04:54:01.763Z,16.00
2023-05-08T04:55:01.793Z,16.00
2023-05-08T04:56:01.767Z,16.00
2023-05-08T04:57:01.789Z,16.00
2023-05-08T04:58:01.779Z,16.00
2023-05-08T04:59:01.783Z,20.00
2023-05-08T05:00:01.781Z,16.00
2023-05-08T05:01:01.860Z,16.00
2023-05-08T05:02:01.963Z,16.00
2023-05-08T05:03:01.856Z,16.00
2023-05-08T05:04:01.954Z,16.00
2023-05-08T05:05:01.818Z,16.00
2023-05-08T05:06:01.808Z,20.00
2023-05-08T05:07:01.788Z,20.00
2023-05-08T05:08:01.794Z,20.00
2023-05-08T05:09:01.789Z,16.00
2023-05-08T05:10:01.795Z,16.00
2023-05-08T05:11:01.789Z,16.00
2023-05-08T05:12:01.805Z,20.00
2023-05-08T05:13:01.867Z,20.00
2023-05-08T05:14:01.805Z,20.00
2023-05-08T05:15:01.819Z,20.00
2023-05-08T05:16:01.867Z,16.00
2023-05-08T05:17:01.800Z,16.00
2023-05-08T05:18:01.854Z,16.00
2023-05-08T05:19:01.814Z,20.00
2023-05-08T05:20:01.965Z,20.00
2023-05-08T05:21:01.809Z,20.00
2023-05-08T05:22:01.812Z,20.00
2023-05-08T05:23:01.819Z,20.00
2023-05-08T05:24:01.822Z,20.00
2023-05-08T05:25:01.820Z,20.00
2023-05-08T05:26:01.821Z,24.00
2023-05-08T05:27:01.823Z,24.00
2023-05-08T05:28:01.819Z,24.00
2023-05-08T05:29:01.836Z,20.00
2023-05-08T05:30:01.833Z,24.00
2023-05-08T05:31:01.880Z,20.00
2023-05-08T05:32:01.863Z,20.00
2023-05-08T05:33:01.858Z,20.00
2023-05-08T05:34:01.831Z,20.00
2023-05-08T05:35:01.845Z,20.00
2023-05-08T05:36:01.875Z,20.00
2023-05-08T05:37:01.852Z,20.00
2023-05-08T05:38:01.845Z,20.00
2023-05-08T05:39:01.844Z,20.00
2023-05-08T05:40:01.875Z,24.00
2023-05-08T05:41:01.845Z,20.00
2023-05-08T05:42:01.844Z,20.00
2023-05-08T05:43:01.865Z,20.00
2023-05-08T05:44:01.851Z,20.00
2023-05-08T05:45:01.869Z,20.00
2023-05-08T05:46:01.851Z,20.00
2023-05-08T05:47:01.859Z,20.00
2023-05-08T05:48:01.873Z,20.00
2023-05-08T05:49:01.875Z,24.00
2023-05-08T05:50:01.860Z,24.00
2023-05-08T05:51:01.866Z,20.00
2023-05-08T05:52:01.900Z,24.00
2023-05-08T05:53:01.916Z,20.00
2023-05-08T05:54:01.874Z,24.00
2023-05-08T05:55:01.879Z,20.00
2023-05-08T05:56:01.866Z,24.00
2023-05-08T05:57:01.880Z,24.00
2023-05-08T05:58:01.879Z,24.00
2023-05-08T05:59:01.882Z,24.00
2023-05-08T06:00:01.908Z,24.00
2023-05-08T06:01:01.890Z,24.00
2023-05-08T06:02:01.930Z,24.00
2023-05-08T06:03:02.065Z,24.00
2023-05-08T06:04:01.970Z,24.00
2023-05-08T06:05:01.886Z,24.00
2023-05-08T06:06:01.903Z,24.00
2023-05-08T06:07:01.889Z,24.00
2023-05-08T06:08:02.069Z,24.00
2023-05-08T06:09:01.892Z,24.00
2023-05-08T06:10:01.890Z,24.00
2023-05-08T06:11:02.010Z,24.00
2023-05-08T06:12:01.899Z,24.00
2023-05-08T06:13:01.926Z,28.00
2023-05-08T06:14:01.907Z,24.00
2023-05-08T06:15:01.903Z,24.00
2023-05-08T06:16:01.965Z,24.00
2023-05-08T06:17:01.998Z,24.00
2023-05-08T06:18:01.925Z,28.00
2023-05-08T06:19:01.910Z,28.00
2023-05-08T06:20:01.939Z,28.00
2023-05-08T06:21:01.930Z,28.00
2023-05-08T06:22:01.916Z,28.00
2023-05-08T06:23:01.923Z,28.00
2023-05-08T06:24:02.106Z,32.00
2023-05-08T06:25:01.924Z,28.00
2023-05-08T06:26:01.932Z,28.00
2023-05-08T06:27:01.923Z,28.00
2023-05-08T06:28:01.924Z,28.00
2023-05-08T06:29:01.934Z,28.00
2023-05-08T06:30:01.941Z,28.00
2023-05-08T06:31:02.012Z,28.00
2023-05-08T06:32:01.937Z,32.00
2023-05-08T06:33:01.981Z,32.00
2023-05-08T06:34:01.944Z,28.00
2023-05-08T06:35:01.983Z,28.00
2023-05-08T06:36:01.948Z,28.00
2023-05-08T06:37:01.941Z,32.00
2023-05-08T06:38:01.948Z,28.00
2023-05-08T06:39:01.949Z,28.00
2023-05-08T06:40:11.572Z,28.00
2023-05-08T06:41:01.956Z,28.00
2023-05-08T06:42:01.963Z,32.00
2023-05-08T06:43:01.959Z,28.00
2023-05-08T06:44:01.964Z,32.00
2023-05-08T06:45:01.967Z,28.00
2023-05-08T06:46:02.653Z,32.00
2023-05-08T06:47:01.963Z,28.00
2023-05-08T06:48:02.045Z,32.00
2023-05-08T06:49:01.985Z,32.00
2023-05-08T06:50:01.965Z,32.00
2023-05-08T06:51:01.969Z,32.00
2023-05-08T06:52:01.977Z,32.00
2023-05-08T06:53:02.006Z,32.00
2023-05-08T06:54:01.979Z,32.00
2023-05-08T06:55:01.979Z,32.00
2023-05-08T06:56:02.023Z,32.00
2023-05-08T06:57:01.987Z,32.00
2023-05-08T06:58:01.989Z,32.00
2023-05-08T06:59:08.407Z,32.00
2023-05-08T07:00:02.003Z,32.00
2023-05-08T07:01:01.998Z,32.00
2023-05-08T07:02:02.074Z,32.00
2023-05-08T07:03:02.050Z,32.00
2023-05-08T07:04:01.995Z,32.00
2023-05-08T07:05:02.070Z,32.00
2023-05-08T07:06:01.998Z,32.00
2023-05-08T07:07:02.001Z,32.00
2023-05-08T07:08:01.998Z,36.00
2023-05-08T07:09:02.008Z,36.00
2023-05-08T07:10:02.003Z,32.00
2023-05-08T07:11:02.011Z,32.00
2023-05-08T07:12:02.053Z,32.00
2023-05-08T07:13:02.058Z,32.00
2023-05-08T07:14:02.018Z,36.00
2023-05-08T07:15:13.894Z,36.00
2023-05-08T07:16:02.099Z,36.00
2023-05-08T07:17:02.026Z,36.00
2023-05-08T07:18:02.070Z,36.00
2023-05-08T07:19:02.045Z,36.00
2023-05-08T07:20:02.063Z,32.00
2023-05-08T07:21:02.029Z,32.00
2023-05-08T07:22:02.093Z,36.00
2023-05-08T07:23:02.042Z,36.00
2023-05-08T07:24:02.037Z,36.00
2023-05-08T07:25:02.041Z,36.00
2023-05-08T07:26:02.039Z,36.00
2023-05-08T07:27:02.053Z,36.00
2023-05-08T07:28:02.133Z,36.00
2023-05-08T07:29:02.059Z,32.00
2023-05-08T07:30:02.049Z,36.00
2023-05-08T07:31:02.048Z,36.00
2023-05-08T07:32:02.165Z,36.00
2023-05-08T07:33:02.086Z,36.00
2023-05-08T07:34:02.052Z,36.00
2023-05-08T07:35:02.083Z,36.00
2023-05-08T07:36:02.057Z,36.00
2023-05-08T07:37:02.084Z,40.00
2023-05-08T07:38:02.063Z,40.00
2023-05-08T07:39:02.069Z,36.00
2023-05-08T07:40:02.099Z,36.00
2023-05-08T07:41:02.439Z,36.00
2023-05-08T07:42:02.080Z,36.00
2023-05-08T07:43:02.077Z,40.00
2023-05-08T07:44:02.162Z,40.00
2023-05-08T07:45:02.133Z,36.00
2023-05-08T07:46:02.069Z,40.00
2023-05-08T07:47:02.122Z,40.00
2023-05-08T07:48:02.128Z,40.00
2023-05-08T07:49:02.094Z,40.00
2023-05-08T07:50:02.110Z,40.00
2023-05-08T07:51:02.091Z,40.00
2023-05-08T07:52:02.082Z,40.00
2023-05-08T07:53:02.084Z,40.00
2023-05-08T07:54:02.089Z,44.00
2023-05-08T07:55:02.089Z,40.00
2023-05-08T07:56:02.091Z,40.00
2023-05-08T07:57:02.110Z,44.00
2023-05-08T07:58:02.108Z,44.00
2023-05-08T07:59:02.095Z,44.00
2023-05-08T08:00:02.311Z,44.00
2023-05-08T08:01:02.144Z,44.00
2023-05-08T08:02:02.163Z,44.00
2023-05-08T08:03:02.252Z,44.00
2023-05-08T08:04:02.193Z,44.00
2023-05-08T08:05:02.113Z,48.00
2023-05-08T08:06:02.108Z,48.00
2023-05-08T08:07:02.154Z,48.00
2023-05-08T08:08:02.129Z,48.00
2023-05-08T08:09:02.123Z,48.00
2023-05-08T08:10:02.130Z,52.00
2023-05-08T08:11:03.864Z,52.00
2023-05-08T08:12:02.118Z,52.00
2023-05-08T08:13:02.357Z,52.00
2023-05-08T08:14:02.123Z,52.00
2023-05-08T08:15:02.119Z,52.00
2023-05-08T08:16:02.153Z,52.00
2023-05-08T08:17:02.185Z,56.00
2023-05-08T08:18:02.217Z,56.00
2023-05-08T08:19:02.138Z,56.00
2023-05-08T08:20:02.182Z,60.00
2023-05-08T08:21:02.149Z,60.00
2023-05-08T08:22:02.153Z,64.00
2023-05-08T08:23:02.142Z,60.00
2023-05-08T08:24:02.151Z,64.00
2023-05-08T08:25:02.153Z,64.00
2023-05-08T08:26:02.146Z,64.00
2023-05-08T08:27:02.159Z,64.00
2023-05-08T08:28:02.186Z,68.00
2023-05-08T08:29:02.177Z,68.00
2023-05-08T08:30:15.820Z,68.00
2023-05-08T08:31:02.230Z,72.00
2023-05-08T08:32:02.208Z,72.00
2023-05-08T08:33:02.360Z,72.00
2023-05-08T08:34:02.209Z,72.00
2023-05-08T08:35:02.186Z,72.00
2023-05-08T08:36:02.172Z,72.00
2023-05-08T08:37:02.175Z,72.00
2023-05-08T08:38:02.172Z,72.00
2023-05-08T08:39:02.170Z,76.00
2023-05-08T08:40:02.185Z,76.00
2023-05-08T08:41:02.181Z,80.00
2023-05-08T08:42:02.179Z,80.00
2023-05-08T08:43:02.284Z,80.00
2023-05-08T08:44:02.211Z,80.00
2023-05-08T08:45:02.179Z,80.00
2023-05-08T08:46:02.204Z,84.00
2023-05-08T08:47:02.206Z,84.00
2023-05-08T08:48:02.336Z,84.00
2023-05-08T08:49:02.207Z,84.00
2023-05-08T08:50:02.202Z,88.00
2023-05-08T08:51:02.196Z,88.00
2023-05-08T08:52:02.201Z,88.00
2023-05-08T08:53:02.241Z,92.00
2023-05-08T08:54:02.209Z,92.00
2023-05-08T08:55:02.244Z,92.00
2023-05-08T08:56:02.217Z,96.00
2023-05-08T08:57:02.210Z,96.00
2023-05-08T08:58:02.214Z,96.00
2023-05-08T08:59:02.222Z,100.00
2023-05-08T09:00:02.228Z,96.00
2023-05-08T09:01:02.223Z,100.00
2023-05-08T09:02:02.341Z,104.00
2023-05-08T09:03:02.405Z,104.00
2023-05-08T09:04:02.357Z,104.00
2023-05-08T09:05:02.234Z,108.00
2023-05-08T09:06:02.243Z,108.00
2023-05-08T09:07:02.227Z,108.00
2023-05-08T09:08:02.255Z,112.00
2023-05-08T09:09:02.237Z,112.00
2023-05-08T09:10:02.272Z,112.00
2023-05-08T09:11:02.258Z,116.00
2023-05-08T09:12:02.238Z,116.00
2023-05-08T09:13:02.329Z,116.00
2023-05-08T09:14:02.253Z,120.00
2023-05-08T09:15:02.255Z,128.00
2023-05-08T09:16:02.352Z,128.00
2023-05-08T09:17:02.261Z,132.00
2023-05-08T09:18:02.286Z,136.00
2023-05-08T09:19:03.366Z,140.00
2023-05-08T09:20:02.398Z,140.00
2023-05-08T09:21:02.263Z,144.00
2023-05-08T09:22:02.269Z,148.00
2023-05-08T09:23:02.266Z,148.00
2023-05-08T09:24:02.275Z,152.00
2023-05-08T09:25:02.269Z,152.00
2023-05-08T09:26:02.281Z,152.00
2023-05-08T09:27:02.284Z,152.00
2023-05-08T09:28:02.279Z,148.00
2023-05-08T09:29:02.300Z,148.00
2023-05-08T09:30:02.300Z,144.00
2023-05-08T09:31:02.307Z,144.00
2023-05-08T09:32:02.398Z,148.00
2023-05-08T09:33:02.394Z,148.00
2023-05-08T09:34:02.287Z,148.00
2023-05-08T09:35:02.309Z,156.00
2023-05-08T09:36:02.423Z,156.00
2023-05-08T09:37:02.303Z,160.00
2023-05-08T09:38:02.297Z,160.00
2023-05-08T09:39:02.309Z,160.00
2023-05-08T09:40:02.321Z,164.00
2023-05-08T09:41:02.309Z,164.00
2023-05-08T09:42:02.332Z,164.00
2023-05-08T09:43:02.320Z,168.00
2023-05-08T09:44:02.322Z,172.00
2023-05-08T09:45:02.324Z,172.00
2023-05-08T09:46:02.456Z,176.00
2023-05-08T09:47:02.322Z,180.00
2023-05-08T09:48:02.426Z,184.00
2023-05-08T09:49:02.333Z,192.00
2023-05-08T09:50:02.382Z,208.00
2023-05-08T09:51:02.330Z,224.00
2023-05-08T09:52:02.537Z,252.00
2023-05-08T09:53:02.360Z,288.00
2023-05-08T09:54:02.341Z,332.00
2023-05-08T09:55:02.369Z,364.00
2023-05-08T09:56:02.347Z,356.00
2023-05-08T09:57:02.345Z,312.00
2023-05-08T09:58:02.345Z,284.00
2023-05-08T09:59:02.348Z,276.00
2023-05-08T10:00:02.374Z,268.00
2023-05-08T10:01:02.391Z,264.00
2023-05-08T10:02:02.362Z,260.00
2023-05-08T10:03:02.482Z,256.00
2023-05-08T10:04:02.482Z,256.00
2023-05-08T10:05:02.439Z,260.00
2023-05-08T10:06:02.382Z,264.00
2023-05-08T10:07:02.373Z,272.00
2023-05-08T10:08:02.504Z,280.00
2023-05-08T10:09:02.378Z,284.00
2023-05-08T10:10:02.391Z,288.00
2023-05-08T10:11:02.402Z,108.00
2023-05-08T10:12:02.400Z,176.00
2023-05-08T10:13:02.419Z,176.00
2023-05-08T10:14:02.411Z,176.00
2023-05-08T10:15:02.399Z,176.00
2023-05-08T10:16:02.414Z,176.00
2023-05-08T10:17:02.446Z,176.00
2023-05-08T10:18:02.486Z,176.00
2023-05-08T10:19:02.459Z,172.00
2023-05-08T10:20:02.478Z,176.00
2023-05-08T10:21:02.409Z,176.00
2023-05-08T10:22:02.413Z,172.00
2023-05-08T10:23:02.499Z,172.00
2023-05-08T10:24:02.536Z,168.00
2023-05-08T10:25:02.416Z,168.00
2023-05-08T10:26:02.429Z,164.00
2023-05-08T10:27:07.369Z,164.00
2023-05-08T10:28:02.444Z,164.00
2023-05-08T10:29:02.432Z,160.00
2023-05-08T10:30:02.428Z,164.00
2023-05-08T10:31:02.494Z,160.00
2023-05-08T10:32:02.440Z,160.00
2023-05-08T10:33:02.456Z,156.00
2023-05-08T10:34:02.459Z,160.00
2023-05-08T10:35:02.448Z,156.00
2023-05-08T10:36:02.462Z,156.00
2023-05-08T10:37:02.449Z,156.00
2023-05-08T10:38:02.471Z,152.00
2023-05-08T10:39:02.468Z,152.00
2023-05-08T10:40:02.587Z,152.00
2023-05-08T10:41:02.459Z,152.00
2023-05-08T10:42:02.484Z,152.00
2023-05-08T10:43:02.471Z,156.00
2023-05-08T10:44:03.529Z,156.00
2023-05-08T10:45:02.485Z,156.00
2023-05-08T10:46:02.502Z,156.00
2023-05-08T10:47:02.481Z,156.00
2023-05-08T10:48:02.535Z,152.00
2023-05-08T10:49:02.492Z,152.00
2023-05-08T10:50:02.495Z,152.00
2023-05-08T10:51:02.495Z,152.00
2023-05-08T10:52:02.494Z,152.00
2023-05-08T10:53:02.510Z,152.00
2023-05-08T10:54:02.492Z,148.00
2023-05-08T10:55:02.507Z,148.00
2023-05-08T10:56:02.531Z,148.00
2023-05-08T10:57:02.505Z,144.00
2023-05-08T10:58:02.510Z,144.00
2023-05-08T10:59:02.507Z,144.00
2023-05-08T11:00:02.532Z,144.00
2023-05-08T11:01:02.516Z,140.00
2023-05-08T11:02:02.558Z,140.00
2023-05-08T11:03:02.612Z,140.00
2023-05-08T11:04:02.611Z,140.00
2023-05-08T11:05:02.522Z,136.00
2023-05-08T11:06:02.534Z,136.00
2023-05-08T11:07:02.528Z,136.00
2023-05-08T11:08:02.580Z,132.00
2023-05-08T11:09:02.529Z,132.00
2023-05-08T11:10:02.534Z,132.00
2023-05-08T11:11:02.540Z,132.00
2023-05-08T11:12:02.574Z,128.00
2023-05-08T11:13:02.594Z,128.00
2023-05-08T11:14:02.550Z,128.00
2023-05-08T11:15:02.564Z,124.00
2023-05-08T11:16:02.614Z,124.00
2023-05-08T11:17:02.554Z,124.00
2023-05-08T11:18:02.615Z,120.00
2023-05-08T11:19:02.564Z,120.00
2023-05-08T11:20:02.567Z,124.00
2023-05-08T11:21:02.589Z,116.00
2023-05-08T11:22:02.563Z,120.00
2023-05-08T11:23:02.575Z,116.00
2023-05-08T11:24:02.579Z,116.00
2023-05-08T11:25:02.587Z,116.00
2023-05-08T11:26:02.599Z,116.00
2023-05-08T11:27:02.572Z,116.00
2023-05-08T11:28:02.606Z,112.00
2023-05-08T11:29:02.582Z,112.00
2023-05-08T11:30:02.583Z,112.00
2023-05-08T11:31:02.609Z,116.00
2023-05-08T11:32:02.653Z,112.00
2023-05-08T11:33:02.656Z,112.00
2023-05-08T11:34:02.609Z,112.00
2023-05-08T11:35:02.597Z,112.00
2023-05-08T11:36:02.605Z,116.00
2023-05-08T11:37:02.607Z,112.00
2023-05-08T11:38:02.610Z,112.00
2023-05-08T11:39:02.619Z,112.00
2023-05-08T11:40:02.612Z,112.00
2023-05-08T11:41:02.618Z,112.00
2023-05-08T11:42:02.615Z,116.00
2023-05-08T11:43:02.620Z,116.00
2023-05-08T11:44:02.669Z,116.00
2023-05-08T11:45:02.626Z,116.00
2023-05-08T11:46:02.629Z,116.00
2023-05-08T11:47:02.685Z,116.00
2023-05-08T11:48:02.663Z,120.00
2023-05-08T11:49:02.645Z,116.00
2023-05-08T11:50:02.656Z,116.00
2023-05-08T11:51:02.674Z,120.00
2023-05-08T11:52:02.667Z,120.00
2023-05-08T11:53:02.647Z,120.00
2023-05-08T11:54:02.667Z,120.00
2023-05-08T11:55:02.652Z,120.00
2023-05-08T11:56:02.662Z,124.00
2023-05-08T11:57:02.670Z,120.00
2023-05-08T11:58:02.662Z,120.00
2023-05-08T11:59:02.665Z,124.00
2023-05-08T12:00:02.715Z,124.00
2023-05-08T12:01:02.722Z,128.00
2023-05-08T12:02:08.692Z,124.00
2023-05-08T12:03:02.918Z,124.00
2023-05-08T12:04:02.909Z,128.00
2023-05-08T12:05:02.774Z,128.00
2023-05-08T12:06:02.681Z,128.00
2023-05-08T12:07:02.688Z,128.00
2023-05-08T12:08:02.693Z,128.00
2023-05-08T12:09:02.689Z,128.00
2023-05-08T12:10:02.704Z,128.00
2023-05-08T12:11:02.697Z,128.00
2023-05-08T12:12:02.704Z,128.00
2023-05-08T12:13:02.746Z,128.00
2023-05-08T12:14:02.710Z,128.00
2023-05-08T12:15:02.706Z,128.00
2023-05-08T12:16:02.738Z,128.00
2023-05-08T12:17:02.795Z,128.00
2023-05-08T12:18:02.760Z,128.00
2023-05-08T12:19:02.716Z,124.00
2023-05-08T12:20:02.726Z,116.00
2023-05-08T12:21:02.732Z,116.00
2023-05-08T12:22:02.737Z,120.00
2023-05-08T12:23:02.728Z,120.00
2023-05-08T12:24:02.735Z,120.00
2023-05-08T12:25:02.736Z,120.00
2023-05-08T12:26:02.740Z,120.00
2023-05-08T12:27:02.742Z,112.00
2023-05-08T12:28:02.759Z,116.00
2023-05-08T12:29:02.751Z,108.00
2023-05-08T12:30:02.754Z,108.00
2023-05-08T12:31:02.804Z,104.00
2023-05-08T12:32:02.780Z,104.00
2023-05-08T12:33:02.822Z,100.00
2023-05-08T12:34:02.772Z,100.00
2023-05-08T12:35:02.771Z,100.00
2023-05-08T12:36:02.763Z,100.00
2023-05-08T12:37:02.773Z,96.00
2023-05-08T12:38:02.776Z,100.00
2023-05-08T12:39:02.775Z,100.00
2023-05-08T12:40:02.799Z,96.00
2023-05-08T12:41:02.783Z,96.00
2023-05-08T12:42:02.796Z,96.00
2023-05-08T12:43:02.798Z,92.00
2023-05-08T12:44:02.794Z,88.00
2023-05-08T12:45:02.795Z,80.00
2023-05-08T12:46:02.866Z,80.00
2023-05-08T12:47:02.882Z,76.00
2023-05-08T12:48:02.986Z,76.00
2023-05-08T12:49:02.816Z,72.00
2023-05-08T12:50:02.807Z,76.00
2023-05-08T12:51:02.810Z,76.00
2023-05-08T12:52:02.835Z,76.00
2023-05-08T12:53:02.826Z,76.00
2023-05-08T12:54:02.816Z,72.00
2023-05-08T12:55:02.847Z,68.00